sensor_id;sensor_type;location;lat;lon;timestamp;pressure;altitude;pressure_sealevel;temperature;humidity
51439;BME280;38816;51.142;-0.974;2023-03-07T00:02:19;98608.56;;;4.01;100.00
51439;BME280;38816;51.142;-0.974;2023-03-07T00:04:45;98636.75;;;4.15;100.00
51439;BME280;38816;51.142;-0.974;2023-03-07T00:07:10;98617.97;;;4.09;100.00
51439;BME280;38816;51.142;-0.974;2023-03-07T00:09:36;98627.41;;;4.16;100.00
51439;BME280;38816;51.142;-0.974;2023-03-07T00:12:02;98624.09;;;4.21;100.00
51439;BME280;38816;51.142;-0.974;2023-03-07T00:14:28;98612.22;;;4.20;100.00
51439;BME280;38816;51.142;-0.974;2023-03-07T00:16:53;98621.63;;;4.24;100.00
51439;BME280;38816;51.142;-0.974;2023-03-07T00:19:19;98624.25;;;4.30;100.00
51439;BME280;38816;51.142;-0.974;2023-03-07T00:21:44;98623.47;;;4.35;100.00
51439;BME280;38816;51.142;-0.974;2023-03-07T00:24:10;98605.59;;;4.28;100.00
51439;BME280;38816;51.142;-0.974;2023-03-07T00:26:35;98606.44;;;4.30;100.00
51439;BME280;38816;51.142;-0.974;2023-03-07T00:29:04;98613.22;;;4.30;100.00
51439;BME280;38816;51.142;-0.974;2023-03-07T00:31:30;98597.84;;;4.22;100.00
51439;BME280;38816;51.142;-0.974;2023-03-07T00:33:56;98596.97;;;4.20;100.00
51439;BME280;38816;51.142;-0.974;2023-03-07T00:36:22;98596.13;;;4.21;100.00
51439;BME280;38816;51.142;-0.974;2023-03-07T00:38:48;98588.50;;;4.20;100.00
51439;BME280;38816;51.142;-0.974;2023-03-07T00:41:17;98587.72;;;4.27;100.00
51439;BME280;38816;51.142;-0.974;2023-03-07T00:43:43;98583.47;;;4.26;100.00
51439;BME280;38816;51.142;-0.974;2023-03-07T00:46:11;98572.41;;;4.22;100.00
51439;BME280;38816;51.142;-0.974;2023-03-07T00:48:38;98576.72;;;4.26;100.00
51439;BME280;38816;51.142;-0.974;2023-03-07T00:51:05;98575.06;;;4.28;100.00
51439;BME280;38816;51.142;-0.974;2023-03-07T00:53:32;98560.53;;;4.23;100.00
51439;BME280;38816;51.142;-0.974;2023-03-07T00:56:12;98566.59;;;4.29;100.00
51439;BME280;38816;51.142;-0.974;2023-03-07T00:58:38;98565.72;;;4.29;100.00
51439;BME280;38816;51.142;-0.974;2023-03-07T01:01:05;98564.00;;;4.26;100.00
51439;BME280;38816;51.142;-0.974;2023-03-07T01:03:31;98558.91;;;4.26;100.00
51439;BME280;38816;51.142;-0.974;2023-03-07T01:06:01;98546.00;;;4.14;100.00
51439;BME280;38816;51.142;-0.974;2023-03-07T01:08:27;98545.94;;;4.10;100.00
51439;BME280;38816;51.142;-0.974;2023-03-07T01:10:57;98538.31;;;4.10;100.00
51439;BME280;38816;51.142;-0.974;2023-03-07T01:13:23;98545.97;;;4.11;100.00
51439;BME280;38816;51.142;-0.974;2023-03-07T01:15:48;98551.00;;;4.08;100.00
51439;BME280;38816;51.142;-0.974;2023-03-07T01:18:13;98553.56;;;4.10;100.00
51439;BME280;38816;51.142;-0.974;2023-03-07T01:20:39;98535.75;;;4.06;100.00
51439;BME280;38816;51.142;-0.974;2023-03-07T01:23:05;98534.84;;;4.03;100.00
51439;BME280;38816;51.142;-0.974;2023-03-07T01:25:31;98542.47;;;4.03;100.00
51439;BME280;38816;51.142;-0.974;2023-03-07T01:27:56;98539.78;;;3.95;100.00
51439;BME280;38816;51.142;-0.974;2023-03-07T01:30:23;98543.25;;;4.00;100.00
51439;BME280;38816;51.142;-0.974;2023-03-07T01:32:56;98535.69;;;4.05;100.00
51439;BME280;38816;51.142;-0.974;2023-03-07T01:35:22;98538.22;;;4.02;100.00
51439;BME280;38816;51.142;-0.974;2023-03-07T01:37:52;98529.66;;;3.97;100.00
51439;BME280;38816;51.142;-0.974;2023-03-07T01:40:18;98526.34;;;4.02;100.00
51439;BME280;38816;51.142;-0.974;2023-03-07T01:42:44;98522.91;;;3.97;100.00
51439;BME280;38816;51.142;-0.974;2023-03-07T01:47:38;98521.22;;;3.99;100.00
51439;BME280;38816;51.142;-0.974;2023-03-07T01:50:10;98520.41;;;4.02;100.00
51439;BME280;38816;51.142;-0.974;2023-03-07T01:52:42;98512.66;;;3.94;100.00
51439;BME280;38816;51.142;-0.974;2023-03-07T01:55:16;98505.03;;;3.93;100.00
51439;BME280;38816;51.142;-0.974;2023-03-07T01:57:44;98500.72;;;3.89;100.00
51439;BME280;38816;51.142;-0.974;2023-03-07T02:00:12;98505.88;;;3.93;100.00
51439;BME280;38816;51.142;-0.974;2023-03-07T02:02:45;98500.84;;;3.96;100.00
51439;BME280;38816;51.142;-0.974;2023-03-07T02:05:19;98487.19;;;3.90;100.00
51439;BME280;38816;51.142;-0.974;2023-03-07T02:07:48;98482.94;;;3.89;100.00
51439;BME280;38816;51.142;-0.974;2023-03-07T02:10:15;98491.44;;;3.91;100.00
51439;BME280;38816;51.142;-0.974;2023-03-07T02:12:41;98492.19;;;3.85;100.00
51439;BME280;38816;51.142;-0.974;2023-03-07T02:15:08;98488.81;;;3.85;100.00
51439;BME280;38816;51.142;-0.974;2023-03-07T02:17:34;98482.88;;;3.86;100.00
51439;BME280;38816;51.142;-0.974;2023-03-07T02:20:20;98493.16;;;3.92;100.00
51439;BME280;38816;51.142;-0.974;2023-03-07T02:22:49;98472.69;;;3.84;100.00
51439;BME280;38816;51.142;-0.974;2023-03-07T02:25:32;98475.28;;;3.87;100.00
51439;BME280;38816;51.142;-0.974;2023-03-07T02:28:01;98469.25;;;3.80;100.00
51439;BME280;38816;51.142;-0.974;2023-03-07T02:30:28;98451.47;;;3.82;100.00
51439;BME280;38816;51.142;-0.974;2023-03-07T02:32:54;98463.31;;;3.78;100.00
51439;BME280;38816;51.142;-0.974;2023-03-07T02:35:22;98456.50;;;3.77;100.00
51439;BME280;38816;51.142;-0.974;2023-03-07T02:37:51;98448.75;;;3.68;100.00
51439;BME280;38816;51.142;-0.974;2023-03-07T02:40:22;98436.88;;;3.67;100.00
51439;BME280;38816;51.142;-0.974;2023-03-07T02:42:48;98443.69;;;3.70;100.00
51439;BME280;38816;51.142;-0.974;2023-03-07T02:45:17;98447.13;;;3.73;100.00
51439;BME280;38816;51.142;-0.974;2023-03-07T02:47:44;98438.63;;;3.71;100.00
51439;BME280;38816;51.142;-0.974;2023-03-07T02:50:11;98448.78;;;3.71;100.00
51439;BME280;38816;51.142;-0.974;2023-03-07T02:52:36;98448.72;;;3.67;100.00
51439;BME280;38816;51.142;-0.974;2023-03-07T02:55:02;98431.84;;;3.72;100.00
51439;BME280;38816;51.142;-0.974;2023-03-07T02:57:28;98448.06;;;3.78;100.00
51439;BME280;38816;51.142;-0.974;2023-03-07T02:59:53;98433.56;;;3.73;100.00
51439;BME280;38816;51.142;-0.974;2023-03-07T03:02:19;98438.69;;;3.76;100.00
51439;BME280;38816;51.142;-0.974;2023-03-07T03:04:44;98435.31;;;3.75;100.00
51439;BME280;38816;51.142;-0.974;2023-03-07T03:07:09;98442.13;;;3.79;100.00
51439;BME280;38816;51.142;-0.974;2023-03-07T03:09:35;98434.47;;;3.76;100.00
51439;BME280;38816;51.142;-0.974;2023-03-07T03:12:00;98436.94;;;3.70;100.00
51439;BME280;38816;51.142;-0.974;2023-03-07T03:14:26;98440.31;;;3.69;100.00
51439;BME280;38816;51.142;-0.974;2023-03-07T03:16:52;98439.44;;;3.69;100.00
51439;BME280;38816;51.142;-0.974;2023-03-07T03:19:18;98442.94;;;3.75;100.00
51439;BME280;38816;51.142;-0.974;2023-03-07T03:21:43;98452.13;;;3.67;100.00
51439;BME280;38816;51.142;-0.974;2023-03-07T03:24:09;98450.38;;;3.65;100.00
51439;BME280;38816;51.142;-0.974;2023-03-07T03:26:35;98448.50;;;3.53;100.00
51439;BME280;38816;51.142;-0.974;2023-03-07T03:29:02;98458.72;;;3.56;100.00
51439;BME280;38816;51.142;-0.974;2023-03-07T03:31:28;98451.72;;;3.41;100.00
51439;BME280;38816;51.142;-0.974;2023-03-07T03:33:54;98448.31;;;3.41;100.00
51439;BME280;38816;51.142;-0.974;2023-03-07T03:36:20;98449.84;;;3.29;100.00
51439;BME280;38816;51.142;-0.974;2023-03-07T03:38:51;98456.50;;;3.23;100.00
51439;BME280;38816;51.142;-0.974;2023-03-07T03:41:16;98451.47;;;3.24;100.00
51439;BME280;38816;51.142;-0.974;2023-03-07T03:43:42;98445.31;;;3.12;100.00
51439;BME280;38816;51.142;-0.974;2023-03-07T03:46:07;98428.16;;;2.98;100.00
51439;BME280;38816;51.142;-0.974;2023-03-07T03:48:33;98423.88;;;2.96;100.00
51439;BME280;38816;51.142;-0.974;2023-03-07T03:51:07;98422.09;;;2.92;100.00
51439;BME280;38816;51.142;-0.974;2023-03-07T03:53:34;98440.88;;;3.00;100.00
51439;BME280;38816;51.142;-0.974;2023-03-07T03:56:08;98437.56;;;3.04;100.00
51439;BME280;38816;51.142;-0.974;2023-03-07T03:58:35;98425.56;;;2.95;100.00
51439;BME280;38816;51.142;-0.974;2023-03-07T04:01:02;98417.88;;;2.91;100.00
51439;BME280;38816;51.142;-0.974;2023-03-07T04:03:31;98416.94;;;2.87;100.00
51439;BME280;38816;51.142;-0.974;2023-03-07T04:06:02;98416.09;;;2.87;100.00
51439;BME280;38816;51.142;-0.974;2023-03-07T04:08:29;98426.31;;;2.90;100.00
51439;BME280;38816;51.142;-0.974;2023-03-07T04:10:54;98419.47;;;2.84;100.00
51439;BME280;38816;51.142;-0.974;2023-03-07T04:13:19;98436.47;;;2.91;100.00
51439;BME280;38816;51.142;-0.974;2023-03-07T04:15:45;98417.78;;;2.85;100.00
51439;BME280;38816;51.142;-0.974;2023-03-07T04:18:11;98435.63;;;2.91;100.00
51439;BME280;38816;51.142;-0.974;2023-03-07T04:20:36;98437.50;;;2.56;100.00
51439;BME280;38816;51.142;-0.974;2023-03-07T04:23:01;98437.25;;;2.42;100.00
51439;BME280;38816;51.142;-0.974;2023-03-07T04:25:27;98427.59;;;2.24;100.00
51439;BME280;38816;51.142;-0.974;2023-03-07T04:27:52;98423.06;;;2.09;100.00
51439;BME280;38816;51.142;-0.974;2023-03-07T04:30:17;98447.41;;;2.02;100.00
51439;BME280;38816;51.142;-0.974;2023-03-07T04:32:44;98430.19;;;1.86;100.00
51439;BME280;38816;51.142;-0.974;2023-03-07T04:35:09;98432.72;;;1.85;100.00
51439;BME280;38816;51.142;-0.974;2023-03-07T04:37:34;98435.16;;;1.82;100.00
51439;BME280;38816;51.142;-0.974;2023-03-07T04:40:00;98445.22;;;1.78;100.00
51439;BME280;38816;51.142;-0.974;2023-03-07T04:42:25;98442.59;;;1.74;100.00
51439;BME280;38816;51.142;-0.974;2023-03-07T04:44:51;98451.66;;;1.64;100.00
51439;BME280;38816;51.142;-0.974;2023-03-07T04:47:16;98446.25;;;1.49;100.00
51439;BME280;38816;51.142;-0.974;2023-03-07T04:49:41;98445.97;;;1.37;100.00
51439;BME280;38816;51.142;-0.974;2023-03-07T04:52:07;98455.03;;;1.29;100.00
51439;BME280;38816;51.142;-0.974;2023-03-07T04:54:32;98449.88;;;1.25;100.00
51439;BME280;38816;51.142;-0.974;2023-03-07T04:56:57;98436.22;;;1.17;100.00
51439;BME280;38816;51.142;-0.974;2023-03-07T04:59:23;98433.59;;;1.14;100.00
51439;BME280;38816;51.142;-0.974;2023-03-07T05:01:51;98448.91;;;1.19;100.00
51439;BME280;38816;51.142;-0.974;2023-03-07T05:04:17;98443.59;;;1.08;100.00
51439;BME280;38816;51.142;-0.974;2023-03-07T05:06:42;98452.91;;;1.11;100.00
51439;BME280;38816;51.142;-0.974;2023-03-07T05:09:07;98447.81;;;1.09;100.00
51439;BME280;38816;51.142;-0.974;2023-03-07T05:11:33;98437.47;;;1.00;100.00
51439;BME280;38816;51.142;-0.974;2023-03-07T05:13:58;98451.78;;;0.99;100.00
51439;BME280;38816;51.142;-0.974;2023-03-07T05:16:24;98448.25;;;0.93;100.00
51439;BME280;38816;51.142;-0.974;2023-03-07T05:18:49;98436.09;;;0.80;100.00
51439;BME280;38816;51.142;-0.974;2023-03-07T05:21:14;98445.31;;;0.78;100.00
51439;BME280;38816;51.142;-0.974;2023-03-07T05:23:40;98452.06;;;0.77;100.00
51439;BME280;38816;51.142;-0.974;2023-03-07T05:26:06;98450.38;;;0.78;100.00
51439;BME280;38816;51.142;-0.974;2023-03-07T05:28:31;98435.84;;;0.70;100.00
51439;BME280;38816;51.142;-0.974;2023-03-07T05:30:56;98457.25;;;0.82;100.00
51439;BME280;38816;51.142;-0.974;2023-03-07T05:33:22;98449.47;;;0.75;100.00
51439;BME280;38816;51.142;-0.974;2023-03-07T05:35:47;98455.72;;;0.88;100.00
51439;BME280;38816;51.142;-0.974;2023-03-07T05:38:12;98454.00;;;0.87;100.00
51439;BME280;38816;51.142;-0.974;2023-03-07T05:40:38;98452.56;;;0.97;100.00
51439;BME280;38816;51.142;-0.974;2023-03-07T05:43:04;98452.69;;;1.01;100.00
51439;BME280;38816;51.142;-0.974;2023-03-07T05:45:29;98446.03;;;1.05;100.00
51439;BME280;38816;51.142;-0.974;2023-03-07T05:47:55;98446.91;;;1.07;100.00
51439;BME280;38816;51.142;-0.974;2023-03-07T05:50:20;98437.59;;;1.06;100.00
51439;BME280;38816;51.142;-0.974;2023-03-07T05:52:46;98448.78;;;1.14;100.00
51439;BME280;38816;51.142;-0.974;2023-03-07T05:55:11;98427.53;;;1.08;100.00
51439;BME280;38816;51.142;-0.974;2023-03-07T05:57:37;98436.13;;;1.14;100.00
51439;BME280;38816;51.142;-0.974;2023-03-07T06:00:04;98430.16;;;1.12;100.00
51439;BME280;38816;51.142;-0.974;2023-03-07T06:02:30;98439.50;;;1.13;100.00
51439;BME280;38816;51.142;-0.974;2023-03-07T06:04:55;98442.03;;;1.13;100.00
51439;BME280;38816;51.142;-0.974;2023-03-07T06:07:21;98434.34;;;1.10;100.00
51439;BME280;38816;51.142;-0.974;2023-03-07T06:09:46;98442.66;;;1.05;100.00
51439;BME280;38816;51.142;-0.974;2023-03-07T06:12:12;98455.22;;;1.03;100.00
51439;BME280;38816;51.142;-0.974;2023-03-07T06:14:37;98451.84;;;1.02;100.00
51439;BME280;38816;51.142;-0.974;2023-03-07T06:17:03;98450.03;;;0.97;100.00
51439;BME280;38816;51.142;-0.974;2023-03-07T06:19:29;98437.88;;;0.84;100.00
51439;BME280;38816;51.142;-0.974;2023-03-07T06:21:55;98453.16;;;0.87;100.00
51439;BME280;38816;51.142;-0.974;2023-03-07T06:24:20;98452.13;;;0.80;100.00
51439;BME280;38816;51.142;-0.974;2023-03-07T06:26:45;98453.75;;;0.78;100.00
51439;BME280;38816;51.142;-0.974;2023-03-07T06:29:11;98443.56;;;0.75;100.00
51439;BME280;38816;51.142;-0.974;2023-03-07T06:31:36;98430.78;;;0.70;100.00
51439;BME280;38816;51.142;-0.974;2023-03-07T06:34:02;98444.59;;;0.82;100.00
51439;BME280;38816;51.142;-0.974;2023-03-07T06:36:27;98448.09;;;0.87;100.00
51439;BME280;38816;51.142;-0.974;2023-03-07T06:38:52;98445.56;;;0.87;100.00
51439;BME280;38816;51.142;-0.974;2023-03-07T06:41:18;98449.72;;;0.85;100.00
51439;BME280;38816;51.142;-0.974;2023-03-07T06:43:43;98459.91;;;0.88;100.00
51439;BME280;38816;51.142;-0.974;2023-03-07T06:46:09;98454.81;;;0.86;100.00
51439;BME280;38816;51.142;-0.974;2023-03-07T06:48:34;98441.25;;;0.84;100.00
51439;BME280;38816;51.142;-0.974;2023-03-07T06:51:05;98443.84;;;0.86;100.00
51439;BME280;38816;51.142;-0.974;2023-03-07T06:53:31;98454.84;;;0.88;100.00
51439;BME280;38816;51.142;-0.974;2023-03-07T06:55:56;98444.47;;;0.77;100.00
51439;BME280;38816;51.142;-0.974;2023-03-07T06:58:22;98460.75;;;0.87;100.00
51439;BME280;38816;51.142;-0.974;2023-03-07T07:00:47;98441.84;;;0.74;100.00
51439;BME280;38816;51.142;-0.974;2023-03-07T07:03:13;98465.84;;;0.90;100.00
51439;BME280;38816;51.142;-0.974;2023-03-07T07:05:39;98457.41;;;0.89;100.00
51439;BME280;38816;51.142;-0.974;2023-03-07T07:08:05;98463.41;;;0.93;100.00
51439;BME280;38816;51.142;-0.974;2023-03-07T07:10:30;98461.72;;;0.92;100.00
51439;BME280;38816;51.142;-0.974;2023-03-07T07:12:55;98466.78;;;0.92;100.00
51439;BME280;38816;51.142;-0.974;2023-03-07T07:15:23;98463.41;;;0.93;100.00
51439;BME280;38816;51.142;-0.974;2023-03-07T07:17:49;98450.75;;;0.93;100.00
51439;BME280;38816;51.142;-0.974;2023-03-07T07:20:15;98452.69;;;1.03;100.00
51439;BME280;38816;51.142;-0.974;2023-03-07T07:22:40;98464.81;;;1.15;100.00
51439;BME280;38816;51.142;-0.974;2023-03-07T07:25:06;98465.81;;;1.21;100.00
51439;BME280;38816;51.142;-0.974;2023-03-07T07:27:31;98475.28;;;1.29;100.00
51439;BME280;38816;51.142;-0.974;2023-03-07T07:29:57;98456.63;;;1.25;100.00
51439;BME280;38816;51.142;-0.974;2023-03-07T07:32:22;98469.47;;;1.33;100.00
51439;BME280;38816;51.142;-0.974;2023-03-07T07:34:47;98456.81;;;1.31;100.00
51439;BME280;38816;51.142;-0.974;2023-03-07T07:37:13;98462.09;;;1.40;100.00
51439;BME280;38816;51.142;-0.974;2023-03-07T07:39:38;98461.38;;;1.46;100.00
51439;BME280;38816;51.142;-0.974;2023-03-07T07:42:08;98443.63;;;1.44;100.00
51439;BME280;38816;51.142;-0.974;2023-03-07T07:44:34;98452.28;;;1.54;100.00
51439;BME280;38816;51.142;-0.974;2023-03-07T07:46:59;98463.50;;;1.65;100.00
51439;BME280;38816;51.142;-0.974;2023-03-07T07:49:25;98467.84;;;1.71;100.00
51439;BME280;38816;51.142;-0.974;2023-03-07T07:51:50;98468.75;;;1.73;100.00
51439;BME280;38816;51.142;-0.974;2023-03-07T07:54:16;98465.47;;;1.77;100.00
51439;BME280;38816;51.142;-0.974;2023-03-07T07:56:41;98469.81;;;1.84;100.00
51439;BME280;38816;51.142;-0.974;2023-03-07T07:59:07;98469.16;;;1.91;100.00
51439;BME280;38816;51.142;-0.974;2023-03-07T08:01:32;98465.06;;;1.98;100.00
51439;BME280;38816;51.142;-0.974;2023-03-07T08:03:57;98462.69;;;2.04;100.00
51439;BME280;38816;51.142;-0.974;2023-03-07T08:06:25;98445.69;;;2.00;100.00
51439;BME280;38816;51.142;-0.974;2023-03-07T08:08:51;98465.44;;;2.15;100.00
51439;BME280;38816;51.142;-0.974;2023-03-07T08:11:18;98458.69;;;2.15;100.00
51439;BME280;38816;51.142;-0.974;2023-03-07T08:13:44;98469.81;;;2.22;100.00
51439;BME280;38816;51.142;-0.974;2023-03-07T08:16:11;98471.50;;;2.21;100.00
51439;BME280;38816;51.142;-0.974;2023-03-07T08:18:37;98471.50;;;2.21;100.00
51439;BME280;38816;51.142;-0.974;2023-03-07T08:21:02;98485.16;;;2.28;100.00
51439;BME280;38816;51.142;-0.974;2023-03-07T08:23:28;98491.03;;;2.25;100.00
51439;BME280;38816;51.142;-0.974;2023-03-07T08:25:53;98475.53;;;2.12;100.00
51439;BME280;38816;51.142;-0.974;2023-03-07T08:28:18;98490.94;;;2.21;100.00
51439;BME280;38816;51.142;-0.974;2023-03-07T08:30:44;98479.06;;;2.20;100.00
51439;BME280;38816;51.142;-0.974;2023-03-07T08:33:09;98488.59;;;2.32;100.00
51439;BME280;38816;51.142;-0.974;2023-03-07T08:35:34;98486.91;;;2.31;100.00
51439;BME280;38816;51.142;-0.974;2023-03-07T08:38:00;98482.59;;;2.28;100.00
51439;BME280;38816;51.142;-0.974;2023-03-07T08:40:29;98476.72;;;2.29;100.00
51439;BME280;38816;51.142;-0.974;2023-03-07T08:42:55;98480.94;;;2.28;100.00
51439;BME280;38816;51.142;-0.974;2023-03-07T08:45:22;98483.47;;;2.28;100.00
51439;BME280;38816;51.142;-0.974;2023-03-07T08:47:51;98492.94;;;2.37;100.00
51439;BME280;38816;51.142;-0.974;2023-03-07T08:50:16;98493.97;;;2.47;100.00
51439;BME280;38816;51.142;-0.974;2023-03-07T08:52:42;98481.38;;;2.50;100.00
51439;BME280;38816;51.142;-0.974;2023-03-07T08:55:08;98482.16;;;2.47;100.00
51439;BME280;38816;51.142;-0.974;2023-03-07T08:57:33;98495.81;;;2.52;100.00
51439;BME280;38816;51.142;-0.974;2023-03-07T08:59:58;98480.34;;;2.42;100.00
51439;BME280;38816;51.142;-0.974;2023-03-07T09:02:24;98489.66;;;2.41;100.00
51439;BME280;38816;51.142;-0.974;2023-03-07T09:04:49;98491.25;;;2.38;100.00
51439;BME280;38816;51.142;-0.974;2023-03-07T09:07:14;98478.56;;;2.36;100.00
51439;BME280;38816;51.142;-0.974;2023-03-07T09:09:40;98485.50;;;2.45;100.00
51439;BME280;38816;51.142;-0.974;2023-03-07T09:12:06;98488.25;;;2.56;100.00
51439;BME280;38816;51.142;-0.974;2023-03-07T09:14:31;98482.47;;;2.61;100.00
51439;BME280;38816;51.142;-0.974;2023-03-07T09:16:56;98473.84;;;2.53;100.00
51439;BME280;38816;51.142;-0.974;2023-03-07T09:19:22;98468.00;;;2.57;100.00
51439;BME280;38816;51.142;-0.974;2023-03-07T09:21:48;98485.09;;;2.67;100.00
51439;BME280;38816;51.142;-0.974;2023-03-07T09:24:13;98482.66;;;2.73;100.00
51439;BME280;38816;51.142;-0.974;2023-03-07T09:26:39;98473.63;;;2.86;100.00
51439;BME280;38816;51.142;-0.974;2023-03-07T09:29:04;98465.22;;;2.89;100.00
51439;BME280;38816;51.142;-0.974;2023-03-07T09:31:29;98478.94;;;3.00;100.00
51439;BME280;38816;51.142;-0.974;2023-03-07T09:33:55;98469.53;;;2.93;100.00
51439;BME280;38816;51.142;-0.974;2023-03-07T09:36:21;98479.78;;;3.00;100.00
51439;BME280;38816;51.142;-0.974;2023-03-07T09:38:46;98478.09;;;2.99;100.00
51439;BME280;38816;51.142;-0.974;2023-03-07T09:49:45;98470.22;;;2.84;100.00
51439;BME280;38816;51.142;-0.974;2023-03-07T09:52:27;98463.31;;;2.78;100.00
51439;BME280;38816;51.142;-0.974;2023-03-07T09:55:02;98459.00;;;2.74;100.00
51439;BME280;38816;51.142;-0.974;2023-03-07T09:57:31;98453.16;;;2.78;100.00
51439;BME280;38816;51.142;-0.974;2023-03-07T10:00:02;98457.53;;;2.86;100.00
51439;BME280;38816;51.142;-0.974;2023-03-07T10:02:31;98474.47;;;2.87;100.00
51439;BME280;38816;51.142;-0.974;2023-03-07T10:07:33;98475.56;;;2.99;100.00
51439;BME280;38816;51.142;-0.974;2023-03-07T10:10:01;98473.09;;;3.04;100.00
51439;BME280;38816;51.142;-0.974;2023-03-07T10:12:30;98473.31;;;3.16;100.00
51439;BME280;38816;51.142;-0.974;2023-03-07T10:25:48;98476.53;;;3.56;100.00
51439;BME280;38816;51.142;-0.974;2023-03-07T10:28:22;98470.38;;;3.43;100.00
51439;BME280;38816;51.142;-0.974;2023-03-07T10:30:50;98469.72;;;3.55;100.00
51439;BME280;38816;51.142;-0.974;2023-03-07T10:33:17;98468.06;;;3.57;100.00
51439;BME280;38816;51.142;-0.974;2023-03-07T10:35:55;98489.38;;;3.68;100.00
51439;BME280;38816;51.142;-0.974;2023-03-07T10:41:39;98484.31;;;3.68;100.00
51439;BME280;38816;51.142;-0.974;2023-03-07T10:44:12;98495.44;;;3.76;100.00
51439;BME280;38816;51.142;-0.974;2023-03-07T10:46:39;98494.63;;;3.77;100.00
51439;BME280;38816;51.142;-0.974;2023-03-07T10:49:13;98497.84;;;3.67;100.00
51439;BME280;38816;51.142;-0.974;2023-03-07T10:51:57;98491.97;;;3.70;100.00
51439;BME280;38816;51.142;-0.974;2023-03-07T10:54:33;98490.28;;;3.70;100.00
51439;BME280;38816;51.142;-0.974;2023-03-07T10:59:40;98508.06;;;3.70;100.00
51439;BME280;38816;51.142;-0.974;2023-03-07T11:04:53;98508.78;;;3.62;100.00
51439;BME280;38816;51.142;-0.974;2023-03-07T11:07:34;98515.28;;;3.46;100.00
51439;BME280;38816;51.142;-0.974;2023-03-07T11:12:54;98510.19;;;3.44;100.00
51439;BME280;38816;51.142;-0.974;2023-03-07T11:15:21;98504.31;;;3.47;100.00
51439;BME280;38816;51.142;-0.974;2023-03-07T11:17:49;98503.28;;;3.37;100.00
51439;BME280;38816;51.142;-0.974;2023-03-07T11:22:43;98501.47;;;3.30;100.00
51439;BME280;38816;51.142;-0.974;2023-03-07T11:27:46;98513.31;;;3.29;100.00
51439;BME280;38816;51.142;-0.974;2023-03-07T11:30:24;98511.09;;;3.48;100.00
51439;BME280;38816;51.142;-0.974;2023-03-07T11:33:18;98520.88;;;3.76;100.00
51439;BME280;38816;51.142;-0.974;2023-03-07T11:36:03;98521.66;;;3.72;100.00
51439;BME280;38816;51.142;-0.974;2023-03-07T11:41:37;98529.13;;;3.63;100.00
51439;BME280;38816;51.142;-0.974;2023-03-07T11:53:07;98542.34;;;3.44;100.00
51439;BME280;38816;51.142;-0.974;2023-03-07T11:55:38;98544.72;;;3.35;100.00
51439;BME280;38816;51.142;-0.974;2023-03-07T12:09:26;98544.88;;;2.97;100.00
51439;BME280;38816;51.142;-0.974;2023-03-07T12:18:02;98553.53;;;3.53;100.00
51439;BME280;38816;51.142;-0.974;2023-03-07T12:25:39;98557.34;;;3.78;100.00
51439;BME280;38816;51.142;-0.974;2023-03-07T12:31:27;98552.13;;;3.69;100.00
51439;BME280;38816;51.142;-0.974;2023-03-07T12:34:37;98550.44;;;3.71;100.00
51439;BME280;38816;51.142;-0.974;2023-03-07T12:37:10;98547.75;;;3.64;100.00
51439;BME280;38816;51.142;-0.974;2023-03-07T12:39:50;98546.16;;;3.69;100.00
51439;BME280;38816;51.142;-0.974;2023-03-07T12:45:22;98544.50;;;3.69;100.00
51439;BME280;38816;51.142;-0.974;2023-03-07T12:48:11;98561.69;;;3.87;100.00
51439;BME280;38816;51.142;-0.974;2023-03-07T12:56:10;98566.69;;;3.81;100.00
51439;BME280;38816;51.142;-0.974;2023-03-07T13:01:21;98558.16;;;3.77;100.00
51439;BME280;38816;51.142;-0.974;2023-03-07T13:06:31;98557.56;;;3.94;100.00
51439;BME280;38816;51.142;-0.974;2023-03-07T13:08:58;98550.81;;;3.96;100.00
51439;BME280;38816;51.142;-0.974;2023-03-07T13:11:27;98550.88;;;4.00;100.00
51439;BME280;38816;51.142;-0.974;2023-03-07T13:14:00;98546.63;;;3.96;100.00
51439;BME280;38816;51.142;-0.974;2023-03-07T13:21:57;98541.75;;;4.12;100.00
51439;BME280;38816;51.142;-0.974;2023-03-07T13:24:35;98544.41;;;4.19;100.00
51439;BME280;38816;51.142;-0.974;2023-03-07T13:27:13;98557.19;;;4.24;100.00
51439;BME280;38816;51.142;-0.974;2023-03-07T13:40:55;98543.50;;;4.79;100.00
51439;BME280;38816;51.142;-0.974;2023-03-07T13:56:26;98552.03;;;4.85;100.00
51439;BME280;38816;51.142;-0.974;2023-03-07T13:59:18;98544.69;;;4.41;100.00
51439;BME280;38816;51.142;-0.974;2023-03-07T14:01:51;98540.31;;;4.32;100.00
51439;BME280;38816;51.142;-0.974;2023-03-07T14:09:43;98557.25;;;4.30;100.00
51439;BME280;38816;51.142;-0.974;2023-03-07T14:15:11;98561.09;;;4.02;100.00
51439;BME280;38816;51.142;-0.974;2023-03-07T14:25:25;98564.81;;;3.22;100.00
51439;BME280;38816;51.142;-0.974;2023-03-07T14:28:25;98571.66;;;3.26;100.00
51439;BME280;38816;51.142;-0.974;2023-03-07T14:30:53;98564.28;;;3.40;100.00
51439;BME280;38816;51.142;-0.974;2023-03-07T14:33:20;98556.84;;;3.51;100.00
51439;BME280;38816;51.142;-0.974;2023-03-07T14:35:46;98572.31;;;3.62;100.00
51439;BME280;38816;51.142;-0.974;2023-03-07T14:38:30;98564.75;;;3.66;100.00
51439;BME280;38816;51.142;-0.974;2023-03-07T14:43:55;98569.34;;;3.89;100.00
51439;BME280;38816;51.142;-0.974;2023-03-07T14:52:03;98562.72;;;3.98;100.00
51439;BME280;38816;51.142;-0.974;2023-03-07T14:54:32;98566.19;;;4.02;100.00
51439;BME280;38816;51.142;-0.974;2023-03-07T14:56:59;98569.56;;;4.01;100.00
51439;BME280;38816;51.142;-0.974;2023-03-07T14:59:25;98567.81;;;4.00;100.00
51439;BME280;38816;51.142;-0.974;2023-03-07T15:01:50;98551.78;;;4.02;100.00
51439;BME280;38816;51.142;-0.974;2023-03-07T15:04:29;98565.34;;;4.04;100.00
51439;BME280;38816;51.142;-0.974;2023-03-07T15:07:00;98560.03;;;3.88;100.00
51439;BME280;38816;51.142;-0.974;2023-03-07T15:09:28;98572.59;;;3.78;100.00
51439;BME280;38816;51.142;-0.974;2023-03-07T15:12:14;98571.44;;;3.61;100.00
51439;BME280;38816;51.142;-0.974;2023-03-07T15:14:48;98573.69;;;3.46;100.00
51439;BME280;38816;51.142;-0.974;2023-03-07T15:17:22;98575.06;;;3.28;100.00
51439;BME280;38816;51.142;-0.974;2023-03-07T15:22:27;98563.63;;;3.05;100.00
51439;BME280;38816;51.142;-0.974;2023-03-07T15:24:53;98578.84;;;3.03;100.00